Moosonee Airport
CYMO : rendu visible

Aérodrome :











RETROUVEZ-NOUS SUR...

 
LOGIN :

S'inscrire | Disclaimer

   EN    FR    IT 

 









Légende :    VFR   VFR Marginal   IFR   IFR Intensif   IFR Très Intensif
Visi : 
Plafond : 
>= 8 km
>= 3000ft
5 à 8 km
1000 à 3000 ft
1500m à 5 km
500 à 1000 ft
800 à 1500m
200 à 500 ft
< 800m
< 200 ft
Symboles :   Orages  Brouillard  Fortes neiges  Fortes précipitations  Vent > 20 kt






- Altitude de l'aérodrome : 30 ft
- Code IATA : YMO


CYMO - Moosonee

DERNIER METAR :
  • 222200Z AUTO 20011KT 9SM SCT100 BKN120 BKN200 M10/M12 A2972 RMK SLP067

METARs EXPIRÉS :
  • 222100Z AUTO 21012G18KT 9SM CLR M09/M12 A2973 RMK SLP069
  • 222000Z AUTO 22012KT 9SM CLR M09/M12 A2974 RMK SLP074

TAF TAF CYMO
Valide du 22 à 18h jusqu'au 23 à 06h UTC


221738Z 2218/2306 26010G20KT P6SM SKC
FM222100 24010G20KT P6SM BKN180
FM222300 23010G20KT P6SM BKN025 OVC040
TEMPO 2223/2302 5SM -SN OVC025
FM230200 22010G20KT P6SM -SN OVC025
TEMPO 2302/2306 21/2SM -SN OVC020 RMK FCST BASED ON AUTO OBS. NXT FCST BY 230000Z



MET'MAP, la Météo Aéronautique d'un coup d'oeil ! - Copyright ORBIFLY Décembre 2007 - Disclaimer

ORBIFLY MET'MAP TEAM :

Programmation & Développement : Alexandra Zaïnal
Conception & Développement : Baudouin d'Aumeries
Co-Programmation & Développement : Marc-Olivier Méhu
Soutien technique & logistique : Manuel Goepfert

Contact : metmap@orbifly.com




SOURCES & CREDITS :

   NOAA       Earth
Advisory